CTV937 WIBB-WIII
Flight info
| Callsign | CTV937 |
|---|---|
| Flight time | 1h 23m |
| Altitude | 35000 |
| Route | ISROR T5 BUNIK |
| Aircraft | A320/M-SDE2E3FGHIRWY/LB1 |
Departure
| Time | 2026-04-15 01:57 |
|---|---|
| Airport | Sultan Syarif Kasim II International Airport / Roesmin Nurjadin AFB (WIBB) |
Arrival
| Time | 2026-04-15 03:20 |
|---|---|
| Airport | Soekarno-Hatta International Airport (WIII) |
| Time | Latitude | Longitude | Altitude | Speed | Heading |
|---|---|---|---|---|---|
| 2026-04-15 01:31 | 0.46441 | 101.44682 | 128 ft | 0 kts | 91° |
| 2026-04-15 01:49 | 0.46441 | 101.44664 | 124 ft | 4 kts | 89° |
| 2026-04-15 01:50 | 0.46440 | 101.44637 | 126 ft | 4 kts | 84° |
| 2026-04-15 01:50 | 0.46435 | 101.44610 | 128 ft | 4 kts | 68° |
| 2026-04-15 01:50 | 0.46422 | 101.44591 | 128 ft | 4 kts | 15° |
| 2026-04-15 01:50 | 0.46413 | 101.44590 | 126 ft | 1 kts | 1° |
| 2026-04-15 01:52 | 0.46427 | 101.44590 | 128 ft | 6 kts | 1° |
| 2026-04-15 01:53 | 0.46485 | 101.44592 | 124 ft | 8 kts | 2° |
| 2026-04-15 01:53 | 0.46537 | 101.44594 | 126 ft | 7 kts | 2° |
| 2026-04-15 01:53 | 0.46578 | 101.44595 | 128 ft | 5 kts | 1° |
| 2026-04-15 01:53 | 0.46609 | 101.44596 | 128 ft | 5 kts | 360° |
| 2026-04-15 01:54 | 0.46632 | 101.44567 | 128 ft | 8 kts | 264° |
| 2026-04-15 01:54 | 0.46634 | 101.44505 | 129 ft | 8 kts | 272° |
| 2026-04-15 01:54 | 0.46657 | 101.44469 | 126 ft | 6 kts | 334° |
| 2026-04-15 01:54 | 0.46711 | 101.44470 | 130 ft | 14 kts | 2° |
| 2026-04-15 01:55 | 0.46827 | 101.44474 | 125 ft | 17 kts | 2° |
| 2026-04-15 01:55 | 0.46952 | 101.44478 | 128 ft | 16 kts | 1° |
| 2026-04-15 01:55 | 0.47050 | 101.44502 | 125 ft | 13 kts | 25° |
| 2026-04-15 01:55 | 0.47049 | 101.44480 | 127 ft | 7 kts | 177° |
| 2026-04-15 01:56 | 0.47014 | 101.44480 | 128 ft | 3 kts | 181° |
| 2026-04-15 01:56 | 0.46867 | 101.44475 | 129 ft | 55 kts | 182° |
| 2026-04-15 01:56 | 0.46248 | 101.44456 | 128 ft | 120 kts | 182° |
| 2026-04-15 01:56 | 0.45237 | 101.44422 | 162 ft | 166 kts | 181° |
| 2026-04-15 01:57 | 0.44067 | 101.44483 | 635 ft | 178 kts | 178° |
| 2026-04-15 01:57 | 0.42817 | 101.44572 | 1271 ft | 179 kts | 177° |
| 2026-04-15 01:57 | 0.41596 | 101.44739 | 1988 ft | 178 kts | 161° |
| 2026-04-15 01:57 | 0.40552 | 101.45499 | 2281 ft | 199 kts | 136° |
| 2026-04-15 01:58 | 0.39566 | 101.46580 | 2488 ft | 222 kts | 131° |
| 2026-04-15 01:58 | 0.38509 | 101.47822 | 2748 ft | 246 kts | 130° |
| 2026-04-15 01:58 | 0.37358 | 101.49193 | 3165 ft | 266 kts | 130° |
| 2026-04-15 01:58 | 0.36158 | 101.50629 | 3892 ft | 272 kts | 130° |
| 2026-04-15 01:59 | 0.34936 | 101.52087 | 4666 ft | 276 kts | 130° |
| 2026-04-15 01:59 | 0.33687 | 101.53574 | 5447 ft | 281 kts | 130° |
| 2026-04-15 01:59 | 0.32429 | 101.55080 | 6213 ft | 284 kts | 130° |
| 2026-04-15 01:59 | 0.31151 | 101.56613 | 6978 ft | 289 kts | 130° |
| 2026-04-15 02:00 | 0.29858 | 101.58164 | 7725 ft | 292 kts | 130° |
| 2026-04-15 02:00 | 0.28546 | 101.59730 | 8448 ft | 296 kts | 130° |
| 2026-04-15 02:00 | 0.27209 | 101.61318 | 9137 ft | 300 kts | 130° |
| 2026-04-15 02:00 | 0.25848 | 101.62909 | 9809 ft | 304 kts | 131° |
| 2026-04-15 02:01 | 0.24449 | 101.64533 | 10281 ft | 316 kts | 131° |
| 2026-04-15 02:01 | 0.22957 | 101.66253 | 10427 ft | 339 kts | 131° |
| 2026-04-15 02:01 | 0.21373 | 101.68082 | 10690 ft | 355 kts | 131° |
| 2026-04-15 02:01 | 0.19748 | 101.69966 | 11242 ft | 360 kts | 131° |
| 2026-04-15 02:02 | 0.18106 | 101.71874 | 11871 ft | 364 kts | 131° |
| 2026-04-15 02:02 | 0.16453 | 101.73799 | 12495 ft | 366 kts | 131° |
| 2026-04-15 02:02 | 0.14789 | 101.75738 | 13107 ft | 369 kts | 131° |
| 2026-04-15 02:02 | 0.13111 | 101.77692 | 13688 ft | 372 kts | 131° |
| 2026-04-15 02:03 | 0.11419 | 101.79664 | 14276 ft | 375 kts | 131° |
| 2026-04-15 02:03 | 0.09715 | 101.81650 | 14837 ft | 378 kts | 131° |
| 2026-04-15 02:03 | 0.08021 | 101.83621 | 15383 ft | 381 kts | 131° |
| 2026-04-15 02:03 | 0.06292 | 101.85634 | 15946 ft | 383 kts | 130° |
| 2026-04-15 02:04 | 0.04552 | 101.87659 | 16471 ft | 385 kts | 130° |
| 2026-04-15 02:04 | 0.02800 | 101.89699 | 16971 ft | 388 kts | 130° |
| 2026-04-15 02:04 | 0.01035 | 101.91755 | 17466 ft | 391 kts | 130° |
| 2026-04-15 02:04 | -0.00744 | 101.93820 | 17963 ft | 393 kts | 130° |
| 2026-04-15 02:05 | -0.02532 | 101.95897 | 18449 ft | 395 kts | 130° |
| 2026-04-15 02:05 | -0.04335 | 101.97992 | 18843 ft | 398 kts | 130° |
| 2026-04-15 02:05 | -0.06140 | 102.00093 | 18918 ft | 398 kts | 130° |
| 2026-04-15 02:05 | -0.07940 | 102.02189 | 18921 ft | 397 kts | 130° |
| 2026-04-15 02:06 | -0.09740 | 102.04282 | 18928 ft | 397 kts | 130° |
| 2026-04-15 02:06 | -0.11540 | 102.06375 | 18921 ft | 397 kts | 130° |
| 2026-04-15 02:06 | -0.13338 | 102.08468 | 18921 ft | 397 kts | 130° |
| 2026-04-15 02:06 | -0.15134 | 102.10561 | 18923 ft | 397 kts | 130° |
| 2026-04-15 02:07 | -0.16927 | 102.12654 | 18929 ft | 397 kts | 130° |
| 2026-04-15 02:07 | -0.18723 | 102.14747 | 18926 ft | 397 kts | 130° |
| 2026-04-15 02:07 | -0.20520 | 102.16839 | 18925 ft | 397 kts | 130° |
| 2026-04-15 02:07 | -0.22320 | 102.18928 | 18923 ft | 397 kts | 130° |
| 2026-04-15 02:08 | -0.24119 | 102.21017 | 18922 ft | 397 kts | 130° |
| 2026-04-15 02:08 | -0.25918 | 102.23107 | 18924 ft | 397 kts | 130° |
| 2026-04-15 02:08 | -0.27715 | 102.25198 | 18925 ft | 397 kts | 130° |
| 2026-04-15 02:08 | -0.29513 | 102.27289 | 18933 ft | 397 kts | 130° |
| 2026-04-15 02:09 | -0.31309 | 102.29379 | 18934 ft | 396 kts | 130° |
| 2026-04-15 02:09 | -0.32942 | 102.31592 | 18941 ft | 396 kts | 120° |
| 2026-04-15 02:09 | -0.34246 | 102.34029 | 19357 ft | 399 kts | 117° |
| 2026-04-15 02:09 | -0.35549 | 102.36485 | 19814 ft | 401 kts | 117° |
| 2026-04-15 02:10 | -0.36870 | 102.38948 | 20235 ft | 403 kts | 118° |
| 2026-04-15 02:10 | -0.38207 | 102.41423 | 20637 ft | 406 kts | 118° |
| 2026-04-15 02:10 | -0.39553 | 102.43913 | 21042 ft | 409 kts | 118° |
| 2026-04-15 02:10 | -0.40904 | 102.46418 | 21422 ft | 411 kts | 118° |
| 2026-04-15 02:11 | -0.42243 | 102.48911 | 21801 ft | 413 kts | 118° |
| 2026-04-15 02:11 | -0.43615 | 102.51482 | 22165 ft | 416 kts | 118° |
| 2026-04-15 02:11 | -0.44961 | 102.54006 | 22518 ft | 418 kts | 118° |
| 2026-04-15 02:11 | -0.46335 | 102.56570 | 22870 ft | 420 kts | 118° |
| 2026-04-15 02:12 | -0.47740 | 102.59178 | 23209 ft | 422 kts | 118° |
| 2026-04-15 02:12 | -0.49116 | 102.61731 | 23527 ft | 424 kts | 118° |
| 2026-04-15 02:12 | -0.50524 | 102.64336 | 23868 ft | 426 kts | 118° |
| 2026-04-15 02:12 | -0.51934 | 102.66940 | 24184 ft | 428 kts | 118° |
| 2026-04-15 02:13 | -0.53353 | 102.69571 | 24499 ft | 430 kts | 118° |
| 2026-04-15 02:13 | -0.54772 | 102.72211 | 24795 ft | 432 kts | 118° |
| 2026-04-15 02:13 | -0.56196 | 102.74863 | 25092 ft | 434 kts | 118° |
| 2026-04-15 02:13 | -0.57627 | 102.77527 | 25381 ft | 436 kts | 118° |
| 2026-04-15 02:14 | -0.59064 | 102.80202 | 25667 ft | 438 kts | 118° |
| 2026-04-15 02:14 | -0.60506 | 102.82886 | 25955 ft | 439 kts | 118° |
| 2026-04-15 02:14 | -0.61956 | 102.85578 | 26236 ft | 441 kts | 118° |
| 2026-04-15 02:14 | -0.63412 | 102.88279 | 26505 ft | 442 kts | 118° |
| 2026-04-15 02:15 | -0.64872 | 102.90990 | 26766 ft | 444 kts | 118° |
| 2026-04-15 02:15 | -0.66338 | 102.93710 | 27022 ft | 445 kts | 118° |
| 2026-04-15 02:15 | -0.67808 | 102.96440 | 27270 ft | 447 kts | 118° |
| 2026-04-15 02:15 | -0.69284 | 102.99182 | 27515 ft | 449 kts | 118° |
| 2026-04-15 02:16 | -0.70766 | 103.01934 | 27764 ft | 451 kts | 118° |
| 2026-04-15 02:16 | -0.72252 | 103.04697 | 28000 ft | 452 kts | 118° |
| 2026-04-15 02:16 | -0.73745 | 103.07469 | 28232 ft | 454 kts | 118° |
| 2026-04-15 02:16 | -0.75245 | 103.10253 | 28462 ft | 456 kts | 118° |
| 2026-04-15 02:17 | -0.76744 | 103.13046 | 28686 ft | 457 kts | 118° |
| 2026-04-15 02:17 | -0.78246 | 103.15848 | 28917 ft | 458 kts | 118° |
| 2026-04-15 02:17 | -0.79752 | 103.18658 | 29130 ft | 459 kts | 118° |
| 2026-04-15 02:17 | -0.81267 | 103.21474 | 29336 ft | 461 kts | 118° |
| 2026-04-15 02:18 | -0.82789 | 103.24297 | 29541 ft | 462 kts | 118° |
| 2026-04-15 02:18 | -0.84299 | 103.27092 | 29735 ft | 464 kts | 118° |
| 2026-04-15 02:18 | -0.85851 | 103.29966 | 29935 ft | 465 kts | 118° |
| 2026-04-15 02:18 | -0.87368 | 103.32780 | 30132 ft | 466 kts | 119° |
| 2026-04-15 02:19 | -0.89099 | 103.35522 | 30320 ft | 467 kts | 127° |
| 2026-04-15 02:19 | -0.91246 | 103.37957 | 30544 ft | 467 kts | 136° |
| 2026-04-15 02:19 | -0.93719 | 103.40059 | 30799 ft | 467 kts | 141° |
| 2026-04-15 02:19 | -0.96243 | 103.42096 | 31065 ft | 466 kts | 141° |
| 2026-04-15 02:20 | -0.98761 | 103.44131 | 31348 ft | 465 kts | 141° |
| 2026-04-15 02:20 | -1.01271 | 103.46165 | 31625 ft | 464 kts | 141° |
| 2026-04-15 02:20 | -1.03777 | 103.48199 | 31895 ft | 464 kts | 141° |
| 2026-04-15 02:20 | -1.06281 | 103.50231 | 32168 ft | 463 kts | 141° |
| 2026-04-15 02:21 | -1.08781 | 103.52256 | 32453 ft | 462 kts | 141° |
| 2026-04-15 02:21 | -1.11275 | 103.54277 | 32732 ft | 461 kts | 141° |
| 2026-04-15 02:21 | -1.13767 | 103.56293 | 33006 ft | 460 kts | 141° |
| 2026-04-15 02:21 | -1.16254 | 103.58306 | 33271 ft | 460 kts | 141° |
| 2026-04-15 02:22 | -1.18739 | 103.60316 | 33543 ft | 459 kts | 141° |
| 2026-04-15 02:22 | -1.21222 | 103.62322 | 33806 ft | 459 kts | 141° |
| 2026-04-15 02:22 | -1.23700 | 103.64324 | 34068 ft | 458 kts | 141° |
| 2026-04-15 02:23 | -1.28643 | 103.68328 | 34579 ft | 457 kts | 141° |
| 2026-04-15 02:23 | -1.31107 | 103.70327 | 34805 ft | 456 kts | 141° |
| 2026-04-15 02:23 | -1.32741 | 103.71653 | 34907 ft | 456 kts | 141° |
| 2026-04-15 02:24 | -1.37641 | 103.75623 | 34950 ft | 452 kts | 141° |
| 2026-04-15 02:24 | -1.42526 | 103.79567 | 34951 ft | 451 kts | 141° |
| 2026-04-15 02:25 | -1.47406 | 103.83521 | 34948 ft | 452 kts | 141° |
| 2026-04-15 02:25 | -1.52285 | 103.87479 | 34952 ft | 452 kts | 141° |
| 2026-04-15 02:26 | -1.57169 | 103.91433 | 34949 ft | 452 kts | 141° |
| 2026-04-15 02:26 | -1.62055 | 103.95388 | 34954 ft | 452 kts | 141° |
| 2026-04-15 02:27 | -1.66941 | 103.99350 | 34954 ft | 452 kts | 141° |
| 2026-04-15 02:27 | -1.71826 | 104.03317 | 34954 ft | 453 kts | 141° |
| 2026-04-15 02:28 | -1.76719 | 104.07279 | 34957 ft | 453 kts | 141° |
| 2026-04-15 02:28 | -1.81581 | 104.11215 | 34960 ft | 453 kts | 141° |
| 2026-04-15 02:29 | -1.86477 | 104.15180 | 34959 ft | 453 kts | 141° |
| 2026-04-15 02:29 | -1.91368 | 104.19149 | 34958 ft | 453 kts | 141° |
| 2026-04-15 02:30 | -1.96263 | 104.23121 | 34961 ft | 453 kts | 141° |
| 2026-04-15 02:30 | -2.01160 | 104.27078 | 34959 ft | 453 kts | 141° |
| 2026-04-15 02:31 | -2.06056 | 104.31036 | 34961 ft | 452 kts | 141° |
| 2026-04-15 02:31 | -2.10941 | 104.34997 | 34955 ft | 452 kts | 141° |
| 2026-04-15 02:32 | -2.15825 | 104.38954 | 34953 ft | 452 kts | 141° |
| 2026-04-15 02:32 | -2.20703 | 104.42918 | 34953 ft | 452 kts | 141° |
| 2026-04-15 02:33 | -2.25580 | 104.46879 | 34954 ft | 452 kts | 141° |
| 2026-04-15 02:33 | -2.30464 | 104.50829 | 34954 ft | 452 kts | 141° |
| 2026-04-15 02:34 | -2.35349 | 104.54784 | 34958 ft | 452 kts | 141° |
| 2026-04-15 02:34 | -2.40234 | 104.58751 | 34956 ft | 452 kts | 141° |
| 2026-04-15 02:35 | -2.45118 | 104.62722 | 34952 ft | 453 kts | 141° |
| 2026-04-15 02:35 | -2.50014 | 104.66686 | 34956 ft | 453 kts | 141° |
| 2026-04-15 02:36 | -2.54911 | 104.70653 | 34961 ft | 453 kts | 141° |
| 2026-04-15 02:36 | -2.59771 | 104.74603 | 34963 ft | 453 kts | 141° |
| 2026-04-15 02:37 | -2.64658 | 104.78568 | 34959 ft | 452 kts | 141° |
| 2026-04-15 02:37 | -2.69541 | 104.82522 | 34952 ft | 451 kts | 141° |
| 2026-04-15 02:38 | -2.74415 | 104.86475 | 34947 ft | 451 kts | 141° |
| 2026-04-15 02:38 | -2.79284 | 104.90434 | 34946 ft | 451 kts | 141° |
| 2026-04-15 02:39 | -2.84157 | 104.94387 | 34939 ft | 451 kts | 141° |
| 2026-04-15 02:39 | -2.89030 | 104.98342 | 34943 ft | 451 kts | 140° |
| 2026-04-15 02:40 | -2.93908 | 105.02299 | 34942 ft | 452 kts | 141° |
| 2026-04-15 02:40 | -2.98789 | 105.06258 | 34949 ft | 452 kts | 141° |
| 2026-04-15 02:41 | -3.03669 | 105.10218 | 34953 ft | 452 kts | 141° |
| 2026-04-15 02:41 | -3.08545 | 105.14177 | 34949 ft | 451 kts | 140° |
| 2026-04-15 02:42 | -3.13417 | 105.18136 | 34952 ft | 451 kts | 140° |
| 2026-04-15 02:42 | -3.18292 | 105.22096 | 34952 ft | 452 kts | 140° |
| 2026-04-15 02:43 | -3.23169 | 105.26054 | 34954 ft | 451 kts | 140° |
| 2026-04-15 02:43 | -3.28026 | 105.30021 | 34955 ft | 450 kts | 140° |
| 2026-04-15 02:44 | -3.32840 | 105.34040 | 34954 ft | 450 kts | 139° |
| 2026-04-15 02:44 | -3.37625 | 105.38069 | 34952 ft | 450 kts | 140° |
| 2026-04-15 02:45 | -3.42429 | 105.42088 | 34952 ft | 449 kts | 140° |
| 2026-04-15 02:45 | -3.47231 | 105.46093 | 34959 ft | 449 kts | 140° |
| 2026-04-15 02:46 | -3.52026 | 105.50096 | 34959 ft | 449 kts | 140° |
| 2026-04-15 02:46 | -3.56792 | 105.54075 | 34961 ft | 449 kts | 140° |
| 2026-04-15 02:47 | -3.61584 | 105.58080 | 34953 ft | 449 kts | 140° |
| 2026-04-15 02:47 | -3.66373 | 105.62082 | 34956 ft | 448 kts | 140° |
| 2026-04-15 02:48 | -3.71157 | 105.66079 | 34953 ft | 448 kts | 140° |
| 2026-04-15 02:48 | -3.75941 | 105.70072 | 34958 ft | 448 kts | 140° |
| 2026-04-15 02:49 | -3.80722 | 105.74059 | 34962 ft | 447 kts | 140° |
| 2026-04-15 02:49 | -3.85494 | 105.78044 | 34959 ft | 447 kts | 140° |
| 2026-04-15 02:50 | -3.90261 | 105.82028 | 34963 ft | 446 kts | 140° |
| 2026-04-15 02:50 | -3.95024 | 105.86007 | 34959 ft | 446 kts | 140° |
| 2026-04-15 02:51 | -3.99776 | 105.89988 | 34959 ft | 445 kts | 139° |
| 2026-04-15 02:51 | -4.04499 | 105.93940 | 34955 ft | 445 kts | 140° |
| 2026-04-15 02:52 | -4.09254 | 105.97910 | 34955 ft | 445 kts | 140° |
| 2026-04-15 02:52 | -4.14010 | 106.01887 | 34957 ft | 445 kts | 139° |
| 2026-04-15 02:53 | -4.18760 | 106.05864 | 34955 ft | 445 kts | 139° |
| 2026-04-15 02:53 | -4.23509 | 106.09842 | 34954 ft | 445 kts | 139° |
| 2026-04-15 02:54 | -4.28256 | 106.13815 | 34953 ft | 445 kts | 140° |
| 2026-04-15 02:54 | -4.32907 | 106.17713 | 34947 ft | 445 kts | 139° |
| 2026-04-15 02:55 | -4.37660 | 106.21694 | 34620 ft | 446 kts | 140° |
| 2026-04-15 02:55 | -4.40041 | 106.23685 | 34372 ft | 446 kts | 140° |
| 2026-04-15 02:55 | -4.42430 | 106.25682 | 33627 ft | 450 kts | 140° |
| 2026-04-15 02:55 | -4.44810 | 106.27673 | 32837 ft | 452 kts | 139° |
| 2026-04-15 02:56 | -4.47209 | 106.29680 | 32317 ft | 446 kts | 139° |
| 2026-04-15 02:56 | -4.49580 | 106.31664 | 31729 ft | 443 kts | 139° |
| 2026-04-15 02:56 | -4.51933 | 106.33637 | 31147 ft | 439 kts | 139° |
| 2026-04-15 02:56 | -4.54270 | 106.35594 | 30580 ft | 436 kts | 139° |
| 2026-04-15 02:57 | -4.56590 | 106.37535 | 30022 ft | 433 kts | 139° |
| 2026-04-15 02:57 | -4.58890 | 106.39463 | 29450 ft | 429 kts | 139° |
| 2026-04-15 02:57 | -4.61173 | 106.41373 | 28903 ft | 426 kts | 139° |
| 2026-04-15 02:57 | -4.63438 | 106.43269 | 28358 ft | 423 kts | 139° |
| 2026-04-15 02:58 | -4.65686 | 106.45150 | 27815 ft | 419 kts | 139° |
| 2026-04-15 02:58 | -4.67915 | 106.47015 | 27290 ft | 416 kts | 139° |
| 2026-04-15 02:58 | -4.70125 | 106.48867 | 26768 ft | 412 kts | 139° |
| 2026-04-15 02:58 | -4.72316 | 106.50704 | 26262 ft | 409 kts | 139° |
| 2026-04-15 02:59 | -4.74486 | 106.52524 | 25761 ft | 405 kts | 139° |
| 2026-04-15 02:59 | -4.76634 | 106.54329 | 25289 ft | 401 kts | 139° |
| 2026-04-15 02:59 | -4.78759 | 106.56117 | 24812 ft | 397 kts | 139° |
| 2026-04-15 02:59 | -4.80869 | 106.57891 | 24347 ft | 393 kts | 139° |
| 2026-04-15 03:00 | -4.82955 | 106.59640 | 23886 ft | 389 kts | 139° |
| 2026-04-15 03:00 | -4.85030 | 106.61367 | 23417 ft | 386 kts | 141° |
| 2026-04-15 03:00 | -4.87274 | 106.62822 | 22959 ft | 384 kts | 152° |
| 2026-04-15 03:00 | -4.89693 | 106.63942 | 22485 ft | 382 kts | 155° |
| 2026-04-15 03:01 | -4.92106 | 106.65037 | 22031 ft | 379 kts | 154° |
| 2026-04-15 03:01 | -4.94471 | 106.66118 | 21571 ft | 377 kts | 154° |
| 2026-04-15 03:01 | -4.96854 | 106.67209 | 21101 ft | 376 kts | 154° |
| 2026-04-15 03:01 | -4.99227 | 106.68294 | 20621 ft | 374 kts | 154° |
| 2026-04-15 03:02 | -5.01594 | 106.69376 | 20142 ft | 373 kts | 155° |
| 2026-04-15 03:02 | -5.03952 | 106.70453 | 19666 ft | 372 kts | 155° |
| 2026-04-15 03:02 | -5.06301 | 106.71528 | 19187 ft | 371 kts | 154° |
| 2026-04-15 03:02 | -5.08645 | 106.72601 | 18703 ft | 370 kts | 155° |
| 2026-04-15 03:03 | -5.10980 | 106.73669 | 18232 ft | 369 kts | 155° |
| 2026-04-15 03:03 | -5.13309 | 106.74731 | 17761 ft | 367 kts | 155° |
| 2026-04-15 03:03 | -5.15630 | 106.75790 | 17288 ft | 366 kts | 155° |
| 2026-04-15 03:03 | -5.17930 | 106.76839 | 16867 ft | 363 kts | 155° |
| 2026-04-15 03:04 | -5.20220 | 106.77882 | 16492 ft | 359 kts | 155° |
| 2026-04-15 03:04 | -5.22484 | 106.78909 | 16078 ft | 356 kts | 155° |
| 2026-04-15 03:04 | -5.24725 | 106.79923 | 15480 ft | 350 kts | 155° |
| 2026-04-15 03:04 | -5.26937 | 106.80926 | 14742 ft | 347 kts | 155° |
| 2026-04-15 03:05 | -5.29116 | 106.81910 | 14114 ft | 340 kts | 155° |
| 2026-04-15 03:05 | -5.31260 | 106.82875 | 13649 ft | 338 kts | 156° |
| 2026-04-15 03:05 | -5.33402 | 106.83846 | 13232 ft | 336 kts | 156° |
| 2026-04-15 03:05 | -5.35520 | 106.84807 | 12879 ft | 332 kts | 156° |
| 2026-04-15 03:06 | -5.37622 | 106.85760 | 12445 ft | 331 kts | 156° |
| 2026-04-15 03:06 | -5.39705 | 106.86705 | 11945 ft | 325 kts | 156° |
| 2026-04-15 03:06 | -5.41709 | 106.87614 | 11739 ft | 305 kts | 156° |
| 2026-04-15 03:06 | -5.43587 | 106.88468 | 11461 ft | 290 kts | 156° |
| 2026-04-15 03:07 | -5.45407 | 106.89293 | 11086 ft | 284 kts | 156° |
| 2026-04-15 03:07 | -5.47256 | 106.89967 | 10830 ft | 282 kts | 168° |
| 2026-04-15 03:07 | -5.49199 | 106.90156 | 10586 ft | 281 kts | 181° |
| 2026-04-15 03:07 | -5.51153 | 106.90116 | 10332 ft | 280 kts | 181° |
| 2026-04-15 03:08 | -5.53101 | 106.90081 | 10082 ft | 280 kts | 181° |
| 2026-04-15 03:08 | -5.55042 | 106.90050 | 9867 ft | 279 kts | 180° |
| 2026-04-15 03:08 | -5.56980 | 106.90020 | 9619 ft | 278 kts | 180° |
| 2026-04-15 03:08 | -5.58909 | 106.89992 | 9332 ft | 277 kts | 180° |
| 2026-04-15 03:09 | -5.60835 | 106.89966 | 9045 ft | 277 kts | 180° |
| 2026-04-15 03:09 | -5.62756 | 106.89939 | 8747 ft | 276 kts | 180° |
| 2026-04-15 03:09 | -5.64669 | 106.89912 | 8449 ft | 274 kts | 180° |
| 2026-04-15 03:09 | -5.66545 | 106.89885 | 8161 ft | 273 kts | 180° |
| 2026-04-15 03:10 | -5.68441 | 106.89858 | 7870 ft | 271 kts | 180° |
| 2026-04-15 03:10 | -5.70316 | 106.89830 | 7570 ft | 269 kts | 180° |
| 2026-04-15 03:10 | -5.72185 | 106.89804 | 7207 ft | 268 kts | 180° |
| 2026-04-15 03:10 | -5.74044 | 106.89772 | 6831 ft | 266 kts | 181° |
| 2026-04-15 03:11 | -5.75888 | 106.89731 | 6449 ft | 265 kts | 181° |
| 2026-04-15 03:11 | -5.77724 | 106.89690 | 6073 ft | 263 kts | 181° |
| 2026-04-15 03:11 | -5.79551 | 106.89648 | 5708 ft | 262 kts | 181° |
| 2026-04-15 03:11 | -5.81367 | 106.89611 | 5332 ft | 260 kts | 181° |
| 2026-04-15 03:12 | -5.83180 | 106.89573 | 4900 ft | 260 kts | 180° |
| 2026-04-15 03:12 | -5.84983 | 106.89535 | 4474 ft | 260 kts | 180° |
| 2026-04-15 03:12 | -5.86789 | 106.89496 | 4044 ft | 257 kts | 180° |
| 2026-04-15 03:12 | -5.88544 | 106.89456 | 3658 ft | 246 kts | 181° |
| 2026-04-15 03:13 | -5.90069 | 106.89419 | 3604 ft | 236 kts | 180° |
| 2026-04-15 03:13 | -5.91702 | 106.89384 | 3506 ft | 234 kts | 180° |
| 2026-04-15 03:13 | -5.93323 | 106.89351 | 3389 ft | 233 kts | 180° |
| 2026-04-15 03:13 | -5.94913 | 106.89314 | 3273 ft | 224 kts | 183° |
| 2026-04-15 03:14 | -5.96378 | 106.88928 | 3169 ft | 215 kts | 208° |
| 2026-04-15 03:14 | -5.97179 | 106.88363 | 3065 ft | 211 kts | 220° |
| 2026-04-15 03:14 | -5.98648 | 106.87078 | 2872 ft | 207 kts | 220° |
| 2026-04-15 03:14 | -5.99368 | 106.86454 | 2774 ft | 207 kts | 220° |
| 2026-04-15 03:15 | -6.00455 | 106.85515 | 2629 ft | 206 kts | 220° |
| 2026-04-15 03:15 | -6.01539 | 106.84577 | 2484 ft | 205 kts | 220° |
| 2026-04-15 03:15 | -6.02619 | 106.83645 | 2340 ft | 204 kts | 220° |
| 2026-04-15 03:15 | -6.03653 | 106.82747 | 2250 ft | 187 kts | 221° |
| 2026-04-15 03:16 | -6.04433 | 106.81793 | 2160 ft | 169 kts | 240° |
| 2026-04-15 03:16 | -6.04871 | 106.80769 | 2104 ft | 153 kts | 247° |
| 2026-04-15 03:16 | -6.05256 | 106.79801 | 2107 ft | 147 kts | 247° |
| 2026-04-15 03:16 | -6.05633 | 106.78860 | 2110 ft | 144 kts | 247° |
| 2026-04-15 03:17 | -6.06130 | 106.77627 | 2113 ft | 144 kts | 247° |
| 2026-04-15 03:17 | -6.06381 | 106.77001 | 2112 ft | 143 kts | 247° |
| 2026-04-15 03:17 | -6.06754 | 106.76066 | 2030 ft | 146 kts | 247° |
| 2026-04-15 03:17 | -6.07127 | 106.75135 | 1805 ft | 142 kts | 247° |
| 2026-04-15 03:18 | -6.07492 | 106.74219 | 1614 ft | 141 kts | 248° |
| 2026-04-15 03:18 | -6.07855 | 106.73312 | 1421 ft | 140 kts | 248° |
| 2026-04-15 03:18 | -6.08209 | 106.72423 | 1242 ft | 138 kts | 248° |
| 2026-04-15 03:18 | -6.08569 | 106.71523 | 1059 ft | 137 kts | 248° |
| 2026-04-15 03:19 | -6.08924 | 106.70635 | 880 ft | 139 kts | 249° |
| 2026-04-15 03:19 | -6.09280 | 106.69741 | 686 ft | 141 kts | 249° |
| 2026-04-15 03:19 | -6.09641 | 106.68826 | 469 ft | 141 kts | 249° |
| 2026-04-15 03:19 | -6.10002 | 106.67907 | 273 ft | 142 kts | 247° |
| 2026-04-15 03:20 | -6.10377 | 106.66986 | 95 ft | 143 kts | 248° |
| 2026-04-15 03:20 | -6.10730 | 106.66109 | 42 ft | 122 kts | 248° |
| 2026-04-15 03:20 | -6.10982 | 106.65478 | 40 ft | 73 kts | 248° |
| 2026-04-15 03:20 | -6.11116 | 106.65143 | 39 ft | 42 kts | 248° |
| 2026-04-15 03:21 | -6.11204 | 106.64923 | 40 ft | 29 kts | 244° |
| 2026-04-15 03:21 | -6.11432 | 106.64717 | 40 ft | 10 kts | 192° |
| 2026-04-15 03:21 | -6.11498 | 106.64721 | 38 ft | 9 kts | 155° |
| 2026-04-15 03:22 | -6.11549 | 106.64747 | 39 ft | 7 kts | 154° |
| 2026-04-15 03:22 | -6.11596 | 106.64766 | 40 ft | 8 kts | 159° |
| 2026-04-15 03:22 | -6.11639 | 106.64783 | 42 ft | 8 kts | 159° |
| 2026-04-15 03:22 | -6.11719 | 106.64802 | 44 ft | 13 kts | 187° |
| 2026-04-15 03:23 | -6.11793 | 106.64752 | 41 ft | 14 kts | 229° |
| 2026-04-15 03:23 | -6.11866 | 106.64684 | 42 ft | 15 kts | 220° |
| 2026-04-15 03:23 | -6.11960 | 106.64651 | 40 ft | 14 kts | 159° |
| 2026-04-15 03:23 | -6.12038 | 106.64681 | 39 ft | 10 kts | 173° |
| 2026-04-15 03:24 | -6.12085 | 106.64652 | 38 ft | 8 kts | 249° |
| 2026-04-15 03:24 | -6.12108 | 106.64594 | 38 ft | 14 kts | 248° |
| 2026-04-15 03:24 | -6.12146 | 106.64496 | 38 ft | 12 kts | 248° |
| 2026-04-15 03:24 | -6.12201 | 106.64450 | 38 ft | 12 kts | 181° |
| 2026-04-15 03:25 | -6.12299 | 106.64484 | 38 ft | 17 kts | 159° |
| 2026-04-15 03:25 | -6.12416 | 106.64530 | 38 ft | 19 kts | 158° |
| 2026-04-15 03:25 | -6.12545 | 106.64581 | 38 ft | 21 kts | 159° |
| 2026-04-15 03:25 | -6.12684 | 106.64635 | 38 ft | 22 kts | 159° |
| 2026-04-15 03:26 | -6.12836 | 106.64696 | 48 ft | 25 kts | 158° |
| 2026-04-15 03:26 | -6.12989 | 106.64758 | 53 ft | 24 kts | 158° |
| 2026-04-15 03:26 | -6.13075 | 106.64793 | 42 ft | 12 kts | 158° |
| 2026-04-15 03:26 | -6.13142 | 106.64845 | 38 ft | 13 kts | 102° |
| 2026-04-15 03:27 | -6.13118 | 106.64921 | 38 ft | 10 kts | 68° |
| 2026-04-15 03:27 | -6.13093 | 106.64984 | 38 ft | 9 kts | 70° |
| 2026-04-15 03:27 | -6.13075 | 106.65039 | 38 ft | 8 kts | 69° |
| 2026-04-15 03:27 | -6.13078 | 106.65084 | 38 ft | 6 kts | 102° |
| 2026-04-15 03:28 | -6.13086 | 106.65121 | 38 ft | 4 kts | 102° |
| 2026-04-15 03:28 | -6.13089 | 106.65138 | 38 ft | 1 kts | 102° |
| 2026-04-15 03:28 | -6.13090 | 106.65143 | 38 ft | 0 kts | 102° |
| 2026-04-15 03:28 | -6.13091 | 106.65144 | 38 ft | 0 kts | 102° |